Time;durP1;ratioP1;P1;durP2;ratioP2;P2;SDS_P1;SDS_P2;PMS_P1;PMS_P2;Temp;Humidity;BMP_temperature;BMP_pressure;BME280_temperature;BME280_humidity;BME280_pressure;Samples;Min_cycle;Max_cycle;Signal;HPM_P1;HPM_P2
2022/03/30 00:00:35;;;;;;;28.42;17.90;;;;;;;8.26;61.46;99587.19;5109936;28;20040;-28
2022/03/30 00:03:01;;;;;;;30.60;18.17;;;;;;;8.25;62.20;99601.50;5091246;28;20079;-29
2022/03/30 00:05:26;;;;;;;34.00;21.95;;;;;;;8.37;61.73;99615.72;5107766;28;20034;-30
2022/03/30 00:07:53;;;;;;;39.53;23.13;;;;;;;8.38;62.23;99601.41;5109406;28;20032;-29
2022/03/30 00:10:19;;;;;;;34.08;18.27;;;;;;;8.30;62.32;99619.47;5090486;28;20081;-32
2022/03/30 00:12:45;;;;;;;24.63;14.52;;;;;;;8.05;63.24;99613.06;5109319;28;20487;-28
2022/03/30 00:15:10;;;;;;;21.38;13.30;;;;;;;7.74;64.19;99610.38;5108651;28;20030;-33
2022/03/30 00:17:36;;;;;;;21.83;12.52;;;;;;;8.16;62.46;99603.59;5107632;28;20054;-31
2022/03/30 00:20:03;;;;;;;22.75;11.93;;;;;;;7.98;63.22;99588.38;5107436;28;20030;-31
2022/03/30 00:22:28;;;;;;;24.23;12.32;;;;;;;8.15;62.57;99590.53;5090349;28;20483;-30
2022/03/30 00:24:54;;;;;;;27.48;13.38;;;;;;;7.79;62.60;99581.38;5108382;28;20061;-28
2022/03/30 00:27:20;;;;;;;27.20;15.30;;;;;;;8.13;62.85;99592.59;5108781;28;20453;-27
2022/03/30 00:29:45;;;;;;;32.90;16.98;;;;;;;8.02;62.25;99575.50;5109014;28;20051;-29
2022/03/30 00:32:11;;;;;;;24.83;13.02;;;;;;;7.40;63.01;99588.47;5107238;28;20035;-32
2022/03/30 00:34:37;;;;;;;27.60;14.60;;;;;;;7.45;63.28;99581.50;5108342;28;20052;-29
2022/03/30 00:37:02;;;;;;;23.15;12.95;;;;;;;6.95;64.79;99569.84;5108188;28;20028;-27
2022/03/30 00:39:28;;;;;;;25.80;14.25;;;;;;;6.88;64.08;99574.31;5108545;28;20092;-35
2022/03/30 00:41:53;;;;;;;23.83;13.85;;;;;;;6.67;65.01;99584.13;5108432;28;20633;-28
2022/03/30 00:44:19;;;;;;;29.10;16.13;;;;;;;6.81;65.14;99569.03;5108923;28;20043;-30
2022/03/30 00:46:45;;;;;;;29.27;15.30;;;;;;;7.32;63.71;99575.44;5108734;28;20116;-30
2022/03/30 00:49:11;;;;;;;24.70;15.13;;;;;;;7.44;63.40;99587.84;5106768;28;20051;-29
2022/03/30 00:51:37;;;;;;;28.42;15.65;;;;;;;7.93;61.88;99588.22;5106952;28;20058;-33
2022/03/30 00:54:04;;;;;;;31.75;18.42;;;;;;;7.62;63.22;99584.50;5106844;28;20412;-31
2022/03/30 00:56:32;;;;;;;80.28;36.50;;;;;;;7.94;61.39;99573.91;5090163;28;20806;-29
2022/03/30 00:59:00;;;;;;;70.07;31.70;;;;;;;7.34;63.18;99574.22;5106711;28;20177;-30
2022/03/30 01:01:25;;;;;;;48.47;23.90;;;;;;;7.26;64.06;99568.31;5106928;28;20118;-28
2022/03/30 01:03:51;;;;;;;56.40;28.08;;;;;;;7.43;62.80;99578.25;5108162;28;20126;-30
2022/03/30 01:06:16;;;;;;;51.17;28.30;;;;;;;7.57;63.23;99594.94;5108284;28;20024;-30
2022/03/30 01:08:43;;;;;;;46.40;24.08;;;;;;;7.68;62.11;99585.47;5106630;28;20483;-30
2022/03/30 01:11:12;;;;;;;53.65;25.73;;;;;;;7.65;61.98;99570.81;5108148;28;20063;-29
2022/03/30 01:13:39;;;;;;;43.25;23.10;;;;;;;7.68;62.14;99584.66;5107013;28;20024;-28
2022/03/30 01:16:06;;;;;;;43.53;22.63;;;;;;;7.28;64.15;99576.88;5106619;28;20035;-29
2022/03/30 01:18:41;;;;;;;39.47;20.58;;;;;;;7.21;63.85;99569.78;5106765;28;20029;-28
2022/03/30 01:21:08;;;;;;;43.00;21.50;;;;;;;7.34;63.74;99563.59;5106184;28;20032;-28
2022/03/30 01:23:34;;;;;;;34.17;17.90;;;;;;;7.54;62.57;99574.13;5089625;28;20115;-29
2022/03/30 01:26:00;;;;;;;30.83;17.15;;;;;;;7.24;64.32;99577.28;5106687;28;20026;-28
2022/03/30 01:28:29;;;;;;;35.88;17.50;;;;;;;6.82;64.50;99566.19;5089810;28;20114;-28
2022/03/30 01:33:43;;;;;;;31.92;16.77;;;;;;;6.52;65.33;99565.81;5107974;28;20415;-28
2022/03/30 01:36:09;;;;;;;30.48;15.00;;;;;;;6.24;65.96;99581.91;5106690;28;20494;-28
2022/03/30 01:38:34;;;;;;;26.25;14.93;;;;;;;6.10;66.83;99577.59;5107906;28;20539;-29
2022/03/30 01:41:00;;;;;;;32.85;16.20;;;;;;;6.64;64.31;99563.38;5107456;28;20463;-28
2022/03/30 01:43:28;;;;;;;28.48;15.57;;;;;;;6.03;66.48;99548.47;5107808;28;20110;-30
2022/03/30 01:45:54;;;;;;;34.15;16.38;;;;;;;6.35;64.93;99586.56;5107714;28;20199;-29
2022/03/30 01:48:19;;;;;;;29.10;14.75;;;;;;;5.94;67.23;99565.53;5106989;28;20237;-30
2022/03/30 01:50:45;;;;;;;28.05;14.93;;;;;;;6.36;66.26;99582.91;5112089;28;20024;-29
2022/03/30 01:53:10;;;;;;;27.95;14.00;;;;;;;6.43;66.13;99591.66;5093413;28;20038;-30
2022/03/30 01:55:35;;;;;;;32.28;15.75;;;;;;;6.56;66.00;99584.75;5110419;28;20034;-29
2022/03/30 01:58:02;;;;;;;33.03;17.15;;;;;;;6.58;65.55;99574.78;5110310;28;20043;-30
2022/03/30 02:00:27;;;;;;;33.33;17.00;;;;;;;6.77;64.82;99573.94;5111660;28;20035;-28
2022/03/30 02:02:53;;;;;;;30.05;16.40;;;;;;;6.68;65.47;99580.47;5111025;28;20040;-28
2022/03/30 02:05:18;;;;;;;34.00;17.98;;;;;;;7.00;64.08;99577.97;5093722;28;20486;-30
2022/03/30 02:07:45;;;;;;;30.88;16.63;;;;;;;6.88;63.29;99579.63;5111807;28;20415;-29
2022/03/30 02:10:11;;;;;;;27.98;15.82;;;;;;;6.87;64.61;99596.56;5093160;28;20404;-29
2022/03/30 02:12:38;;;;;;;29.23;15.07;;;;;;;6.61;66.22;99601.66;5110250;28;20087;-30
2022/03/30 02:15:09;;;;;;;30.70;15.93;;;;;;;6.56;67.53;99606.78;5111145;28;20034;-29
2022/03/30 02:17:35;;;;;;;31.55;16.75;;;;;;;6.41;66.58;99585.75;5111301;28;20035;-31
2022/03/30 02:20:00;;;;;;;19.60;12.10;;;;;;;6.44;66.69;99595.97;5111400;28;20020;-29
2022/03/30 02:22:26;;;;;;;18.92;11.70;;;;;;;6.22;67.36;99592.69;5111333;28;20031;-28
2022/03/30 02:24:52;;;;;;;21.13;12.00;;;;;;;6.19;68.07;99602.84;5110965;28;20050;-29
2022/03/30 02:27:21;;;;;;;18.67;11.10;;;;;;;6.13;67.81;99601.00;5111080;28;20055;-30
2022/03/30 02:29:48;;;;;;;23.77;12.50;;;;;;;6.12;67.59;99580.84;5110768;28;20114;-32
2022/03/30 02:32:14;;;;;;;21.38;13.57;;;;;;;6.18;67.83;99602.03;5109121;28;20435;-31
2022/03/30 02:34:40;;;;;;;19.70;11.25;;;;;;;6.02;67.83;99576.75;5110860;28;20032;-31
2022/03/30 02:37:06;;;;;;;20.50;10.50;;;;;;;5.87;68.70;99602.56;5109387;28;20419;-28
2022/03/30 02:39:31;;;;;;;19.15;10.43;;;;;;;6.38;67.29;99606.56;5111044;28;20023;-28
2022/03/30 02:41:57;;;;;;;18.13;10.65;;;;;;;6.34;67.14;99592.91;5110667;28;20026;-28
2022/03/30 02:44:22;;;;;;;19.70;10.85;;;;;;;6.32;66.72;99615.31;5110867;28;20108;-31
2022/03/30 02:46:49;;;;;;;19.13;10.02;;;;;;;6.11;66.77;99592.44;5110281;28;20540;-29
2022/03/30 02:49:15;;;;;;;19.80;10.95;;;;;;;6.25;67.16;99615.28;5092677;28;20070;-28
2022/03/30 02:51:40;;;;;;;24.38;13.48;;;;;;;6.22;66.72;99623.66;5110725;28;20059;-30
2022/03/30 02:54:07;;;;;;;21.20;10.90;;;;;;;6.15;67.26;99617.50;5110845;28;20035;-28
2022/03/30 02:56:33;;;;;;;19.80;11.32;;;;;;;6.09;68.00;99618.31;5109023;28;20472;-29
2022/03/30 02:58:59;;;;;;;25.13;12.88;;;;;;;5.83;67.75;99603.97;5108768;28;20466;-28
2022/03/30 03:01:24;;;;;;;28.58;16.77;;;;;;;6.09;67.54;99611.22;5109251;28;20043;-28
2022/03/30 03:03:50;;;;;;;30.85;16.88;;;;;;;5.94;68.18;99624.56;5091882;28;20028;-32
2022/03/30 03:06:15;;;;;;;28.80;15.18;;;;;;;5.72;67.56;99601.88;5110412;28;20066;-31
2022/03/30 03:08:40;;;;;;;27.20;14.77;;;;;;;5.84;68.40;99610.88;5108591;28;20034;-28
2022/03/30 03:11:06;;;;;;;29.27;16.02;;;;;;;5.72;68.00;99602.72;5110189;28;20027;-30
2022/03/30 03:13:31;;;;;;;35.30;18.90;;;;;;;5.11;69.47;99594.69;5110263;28;20403;-29
2022/03/30 03:15:57;;;;;;;36.97;20.30;;;;;;;5.06;69.20;99610.34;5110220;28;20027;-28
2022/03/30 03:18:22;;;;;;;26.95;13.90;;;;;;;4.94;68.79;99610.03;5110390;28;20554;-38
2022/03/30 03:20:49;;;;;;;22.10;13.02;;;;;;;4.62;69.60;99612.28;5108484;28;20032;-29
2022/03/30 03:23:16;;;;;;;31.02;14.20;;;;;;;4.58;69.63;99616.31;5091602;28;20027;-30
2022/03/30 03:25:44;;;;;;;30.40;13.05;;;;;;;4.49;69.30;99585.75;5091555;28;20471;-28
2022/03/30 03:28:11;;;;;;;27.13;13.57;;;;;;;4.59;70.03;99605.53;5091369;28;20055;-29
2022/03/30 03:30:37;;;;;;;25.50;14.15;;;;;;;4.34;71.54;99610.41;5091339;28;20567;-30
2022/03/30 03:33:04;;;;;;;27.08;13.20;;;;;;;4.25;70.95;99593.06;5087626;28;20064;-28
2022/03/30 03:35:30;;;;;;;23.52;13.70;;;;;;;4.46;71.13;99601.97;5104441;28;20098;-30
2022/03/30 03:37:56;;;;;;;29.60;14.60;;;;;;;4.50;71.74;99603.25;5089491;28;20039;-30
2022/03/30 03:40:21;;;;;;;24.55;12.70;;;;;;;4.49;71.31;99606.88;5104667;28;20487;-29
2022/03/30 03:42:48;;;;;;;30.05;13.40;;;;;;;4.42;71.20;99591.78;5089010;28;20081;-29
2022/03/30 03:45:14;;;;;;;29.95;13.52;;;;;;;5.11;69.52;99606.09;5089270;28;20028;-30
2022/03/30 03:47:41;;;;;;;22.92;12.63;;;;;;;4.76;70.23;99608.72;5104774;28;20035;-31
2022/03/30 03:50:07;;;;;;;26.15;12.80;;;;;;;4.63;70.53;99596.22;5089254;28;20028;-29
2022/03/30 03:52:33;;;;;;;30.88;12.73;;;;;;;4.73;70.02;99577.41;5104429;28;20051;-29
2022/03/30 03:54:59;;;;;;;23.42;11.88;;;;;;;4.77;70.11;99602.41;5088923;28;20109;-28
2022/03/30 03:57:24;;;;;;;23.00;12.52;;;;;;;4.99;69.39;99615.59;5104294;28;20143;-28
2022/03/30 03:59:51;;;;;;;24.40;13.18;;;;;;;4.87;69.42;99625.06;5089042;28;20788;-29
2022/03/30 04:02:16;;;;;;;25.70;12.55;;;;;;;5.02;68.88;99631.03;5088881;28;20032;-33
2022/03/30 04:04:43;;;;;;;27.23;13.50;;;;;;;5.11;69.33;99627.25;5104985;28;20055;-30
2022/03/30 04:07:09;;;;;;;27.85;14.20;;;;;;;4.77;70.46;99634.13;5088823;28;20028;-30
2022/03/30 04:09:36;;;;;;;28.63;15.25;;;;;;;4.78;69.25;99617.28;5088773;28;20050;-31
2022/03/30 04:12:02;;;;;;;30.55;14.70;;;;;;;4.64;70.55;99631.38;5103777;28;20028;-32
2022/03/30 04:14:27;;;;;;;34.08;12.77;;;;;;;4.49;71.22;99625.34;5104380;28;20522;-28
2022/03/30 04:16:53;;;;;;;50.22;19.50;;;;;;;4.47;71.71;99627.38;5089027;28;20107;-29
2022/03/30 04:19:18;;;;;;;149.15;53.85;;;;;;;4.64;70.79;99631.38;5088832;28;20020;-28
2022/03/30 04:21:45;;;;;;;170.93;61.70;;;;;;;4.70;70.07;99614.78;5088611;28;20036;-28
2022/03/30 04:24:11;;;;;;;87.63;33.88;;;;;;;4.89;69.71;99630.97;5103952;28;20042;-29
2022/03/30 04:26:37;;;;;;;40.95;19.55;;;;;;;4.90;70.13;99635.22;5103866;28;20191;-30
2022/03/30 04:29:03;;;;;;;34.88;16.65;;;;;;;5.22;68.28;99629.34;5088443;28;20027;-32
2022/03/30 04:31:29;;;;;;;34.60;17.92;;;;;;;5.03;68.92;99619.47;5103846;28;20028;-28
2022/03/30 04:33:54;;;;;;;37.05;17.52;;;;;;;5.17;69.33;99621.19;5102443;28;20058;-27
2022/03/30 04:36:20;;;;;;;38.80;16.92;;;;;;;5.02;69.86;99638.97;5108414;28;20506;-28
2022/03/30 04:38:46;;;;;;;39.05;17.75;;;;;;;4.98;69.56;99613.94;5097122;28;20035;-28
2022/03/30 04:41:12;;;;;;;33.20;15.27;;;;;;;4.86;70.18;99612.84;5089587;28;20047;-32
2022/03/30 04:43:38;;;;;;;56.97;17.40;;;;;;;5.04;69.46;99626.38;5108388;28;20024;-30
2022/03/30 04:46:03;;;;;;;30.85;16.70;;;;;;;5.00;69.95;99627.78;5099454;27;20034;-29
2022/03/30 04:48:29;;;;;;;39.53;20.80;;;;;;;5.11;69.29;99610.56;5123133;27;20031;-28
2022/03/30 04:50:54;;;;;;;37.28;20.20;;;;;;;5.21;69.62;99622.44;5110188;27;20043;-28
2022/03/30 04:53:20;;;;;;;34.25;18.05;;;;;;;5.43;68.76;99624.97;5128798;27;20031;-29
2022/03/30 04:55:45;;;;;;;30.30;15.55;;;;;;;5.31;69.49;99608.88;5107898;27;20026;-31
2022/03/30 04:58:11;;;;;;;34.90;14.77;;;;;;;5.14;69.97;99626.84;5119082;27;20024;-28
2022/03/30 05:00:37;;;;;;;39.67;18.45;;;;;;;5.08;69.84;99624.97;5117097;27;20024;-28
2022/03/30 05:03:03;;;;;;;35.95;17.02;;;;;;;5.09;69.59;99637.19;5118423;27;20027;-29
2022/03/30 05:05:28;;;;;;;32.22;16.02;;;;;;;5.07;69.34;99631.28;5116301;27;20031;-35
2022/03/30 05:07:57;;;;;;;36.25;15.80;;;;;;;5.53;68.77;99646.59;5117591;27;20032;-30
2022/03/30 05:10:23;;;;;;;30.85;16.75;;;;;;;5.64;68.40;99651.34;5096221;28;20500;-35
2022/03/30 05:12:48;;;;;;;32.45;16.23;;;;;;;5.72;68.19;99639.78;5108265;28;20035;-31
2022/03/30 05:15:14;;;;;;;40.20;19.58;;;;;;;5.79;69.19;99640.59;5110456;27;20031;-30
2022/03/30 05:17:43;;;;;;;51.50;22.83;;;;;;;5.81;69.65;99648.34;5118976;28;20043;-29
2022/03/30 05:20:10;;;;;;;43.22;21.25;;;;;;;5.77;69.84;99633.88;5103682;28;20427;-29
2022/03/30 05:22:36;;;;;;;40.28;19.58;;;;;;;5.96;70.08;99651.66;5091951;28;20035;-30
2022/03/30 05:25:01;;;;;;;36.38;18.65;;;;;;;6.07;69.12;99634.41;5114606;27;20020;-31
2022/03/30 05:27:27;;;;;;;38.72;27.48;;;;;;;6.22;70.09;99644.81;5123245;27;20079;-30
2022/03/30 05:29:52;;;;;;;29.08;17.85;;;;;;;6.67;68.75;99655.69;5132621;27;20035;-30
2022/03/30 05:32:18;;;;;;;33.45;16.05;;;;;;;6.64;69.31;99645.50;5132615;27;20418;-28
2022/03/30 05:34:43;;;;;;;28.02;16.38;;;;;;;6.73;69.86;99643.47;5132585;27;20031;-32
2022/03/30 05:37:09;;;;;;;29.80;16.65;;;;;;;6.94;68.77;99650.38;5113646;27;20059;-30
2022/03/30 05:39:39;;;;;;;26.27;18.10;;;;;;;6.88;68.94;99653.84;5132355;27;20035;-28
2022/03/30 05:42:05;;;;;;;37.83;15.77;;;;;;;7.07;68.08;99660.97;5132536;27;20023;-30
2022/03/30 05:44:31;;;;;;;33.22;16.33;;;;;;;7.23;67.84;99668.50;5114030;27;20023;-28
2022/03/30 05:46:57;;;;;;;32.75;16.90;;;;;;;7.37;67.32;99661.31;5113129;27;20019;-29
2022/03/30 05:49:24;;;;;;;31.85;19.08;;;;;;;7.40;66.99;99637.03;5132131;27;20038;-31
2022/03/30 05:51:50;;;;;;;34.80;18.95;;;;;;;7.82;65.89;99661.38;5131833;27;20034;-29
2022/03/30 05:54:15;;;;;;;28.48;17.70;;;;;;;7.89;66.14;99656.06;5132195;27;20031;-28
2022/03/30 05:59:24;;;;;;;28.38;15.00;;;;;;;8.33;64.93;99666.84;5131973;27;20034;-31
2022/03/30 06:01:50;;;;;;;29.65;16.83;;;;;;;8.59;64.82;99664.03;5131995;27;20019;-29
2022/03/30 06:04:16;;;;;;;29.17;16.65;;;;;;;8.45;65.22;99665.97;5132017;27;20044;-28
2022/03/30 06:06:41;;;;;;;29.92;16.92;;;;;;;8.71;64.89;99669.50;5131963;27;20031;-29
2022/03/30 06:09:07;;;;;;;33.25;19.85;;;;;;;9.14;63.45;99663.41;5131594;27;20568;-29
2022/03/30 06:11:33;;;;;;;35.30;19.23;;;;;;;9.05;64.67;99648.72;5132283;27;20038;-32
2022/03/30 06:13:58;;;;;;;47.13;21.55;;;;;;;9.51;63.23;99647.47;5131997;27;20478;-31
2022/03/30 06:16:25;;;;;;;79.43;41.78;;;;;;;9.79;63.00;99656.78;5131997;27;20023;-28
2022/03/30 06:18:52;;;;;;;45.40;27.27;;;;;;;10.15;61.47;99663.06;5113076;27;20052;-29
2022/03/30 06:21:17;;;;;;;37.83;21.33;;;;;;;10.34;61.04;99670.00;5113268;27;20045;-29
2022/03/30 06:23:43;;;;;;;27.98;16.92;;;;;;;10.77;60.22;99666.28;5131874;27;20406;-28
2022/03/30 06:26:08;;;;;;;24.92;15.13;;;;;;;10.74;60.46;99664.06;5132169;27;20027;-32
2022/03/30 06:28:34;;;;;;;23.10;14.52;;;;;;;10.95;61.37;99672.56;5131623;27;20019;-28
2022/03/30 06:31:00;;;;;;;25.38;14.90;;;;;;;11.20;61.01;99673.16;5131198;27;20643;-31
2022/03/30 06:33:25;;;;;;;25.77;12.85;;;;;;;11.41;60.73;99654.91;5129937;27;20083;-31
2022/03/30 06:35:51;;;;;;;24.45;13.75;;;;;;;11.56;59.87;99657.91;5112433;27;20035;-29
2022/03/30 06:38:17;;;;;;;21.23;12.75;;;;;;;11.67;60.52;99645.59;5131497;27;20035;-32
2022/03/30 06:40:47;;;;;;;24.08;13.05;;;;;;;11.72;61.10;99651.00;5112849;27;20453;-28
2022/03/30 06:43:13;;;;;;;21.48;13.27;;;;;;;11.94;60.28;99672.59;5112871;27;20126;-30
2022/03/30 06:45:39;;;;;;;23.75;13.85;;;;;;;11.94;60.76;99677.94;5095725;27;20031;-31
2022/03/30 06:48:05;;;;;;;18.90;12.20;;;;;;;12.01;57.76;99665.25;5131086;27;20036;-29
2022/03/30 06:50:35;;;;;;;23.90;12.65;;;;;;;12.12;57.98;99660.13;5130788;27;20023;-31
2022/03/30 06:53:01;;;;;;;21.13;13.07;;;;;;;12.60;57.57;99678.34;5131076;27;20089;-31
2022/03/30 06:55:26;;;;;;;19.10;12.18;;;;;;;12.72;56.48;99661.41;5131194;27;20034;-28
2022/03/30 06:57:52;;;;;;;21.35;12.57;;;;;;;12.67;56.58;99664.81;5131033;27;20037;-29
2022/03/30 07:00:18;;;;;;;21.55;12.73;;;;;;;13.03;56.56;99681.44;5112459;27;20123;-28
2022/03/30 07:02:44;;;;;;;19.38;12.27;;;;;;;13.37;56.45;99698.31;5130738;27;20464;-31
2022/03/30 07:05:10;;;;;;;25.02;12.25;;;;;;;13.36;55.31;99682.47;5130500;27;20054;-30
2022/03/30 07:10:23;;;;;;;22.23;12.07;;;;;;;13.49;55.19;99690.19;5131300;27;20567;-31
2022/03/30 07:12:50;;;;;;;20.58;11.73;;;;;;;13.92;53.33;99699.31;5129122;27;20191;-29
2022/03/30 07:15:17;;;;;;;21.40;13.18;;;;;;;13.86;54.04;99681.53;5112062;27;20122;-32
2022/03/30 07:17:47;;;;;;;21.90;12.90;;;;;;;14.50;53.01;99696.16;5112098;27;20030;-29
2022/03/30 07:20:14;;;;;;;25.08;13.07;;;;;;;14.46;52.29;99691.31;5130624;27;20410;-29
2022/03/30 07:22:40;;;;;;;23.70;13.40;;;;;;;14.53;51.13;99683.06;5111987;27;20460;-28
2022/03/30 07:25:06;;;;;;;23.85;12.93;;;;;;;14.50;51.10;99680.06;5130259;27;20062;-29
2022/03/30 07:27:31;;;;;;;22.30;12.20;;;;;;;15.09;49.64;99704.22;5111667;27;20050;-29
2022/03/30 07:29:57;;;;;;;25.02;10.90;;;;;;;15.32;47.49;99704.91;5111724;27;20019;-29
2022/03/30 07:32:23;;;;;;;20.60;12.10;;;;;;;15.27;47.95;99703.81;5111613;27;20122;-30
2022/03/30 07:34:49;;;;;;;16.20;9.82;;;;;;;15.33;47.30;99685.03;5111587;27;20027;-29
2022/03/30 07:37:15;;;;;;;22.90;11.55;;;;;;;15.56;47.31;99678.44;5112046;27;20036;-30
2022/03/30 07:39:40;;;;;;;20.10;10.82;;;;;;;15.89;46.44;99696.09;5111576;27;20031;-31
2022/03/30 07:42:06;;;;;;;19.42;10.45;;;;;;;15.80;46.71;99684.25;5130208;27;20083;-29
2022/03/30 07:44:32;;;;;;;17.45;10.00;;;;;;;15.92;46.70;99689.41;5129871;27;20056;-29
2022/03/30 07:46:59;;;;;;;17.63;9.77;;;;;;;16.22;45.12;99681.44;5129499;27;20110;-29
2022/03/30 07:49:25;;;;;;;17.98;11.10;;;;;;;16.08;46.92;99680.31;5111552;27;20027;-32
2022/03/30 07:51:50;;;;;;;18.58;9.85;;;;;;;16.43;45.69;99682.25;5130132;27;20042;-28
2022/03/30 07:54:16;;;;;;;18.70;10.95;;;;;;;16.06;47.02;99682.47;5130042;27;20031;-29
2022/03/30 07:56:41;;;;;;;17.33;10.05;;;;;;;15.96;47.34;99666.28;5129974;27;20729;-29
2022/03/30 07:59:07;;;;;;;17.27;10.98;;;;;;;16.47;47.79;99675.28;5110937;27;20023;-32
2022/03/30 08:01:32;;;;;;;18.55;9.93;;;;;;;16.62;45.25;99674.47;5129799;27;20030;-30
2022/03/30 08:03:58;;;;;;;16.85;9.68;;;;;;;16.84;45.02;99668.84;5129866;27;20031;-29
2022/03/30 08:06:23;;;;;;;17.05;9.95;;;;;;;17.36;42.71;99680.38;5129643;27;20037;-33
2022/03/30 08:08:49;;;;;;;20.30;10.02;;;;;;;17.51;43.21;99679.53;5129371;27;20398;-30
2022/03/30 08:11:14;;;;;;;21.27;10.32;;;;;;;17.45;42.95;99661.75;5129497;27;20248;-29
2022/03/30 08:13:39;;;;;;;17.05;10.95;;;;;;;17.86;42.74;99685.91;5129614;27;20034;-29
2022/03/30 08:16:05;;;;;;;22.40;11.77;;;;;;;17.21;42.33;99664.25;5129935;27;20489;-30
2022/03/30 08:18:31;;;;;;;15.48;9.95;;;;;;;17.22;43.92;99682.84;5129519;27;20454;-30
2022/03/30 08:23:40;;;;;;;16.98;9.95;;;;;;;17.55;43.64;99679.78;5129493;27;20066;-33
2022/03/30 08:26:05;;;;;;;16.80;10.93;;;;;;;17.67;42.07;99659.53;5129247;27;20055;-29
2022/03/30 08:28:31;;;;;;;20.48;9.45;;;;;;;17.75;40.70;99660.81;5129110;27;20020;-30
2022/03/30 08:30:57;;;;;;;16.70;9.32;;;;;;;17.91;41.25;99677.78;5129224;27;20019;-30
2022/03/30 08:33:26;;;;;;;15.68;9.70;;;;;;;18.17;39.89;99666.88;5110267;27;20050;-36
2022/03/30 08:35:53;;;;;;;28.80;9.43;;;;;;;18.00;40.33;99643.75;5129555;27;20027;-28
2022/03/30 08:38:18;;;;;;;19.27;9.18;;;;;;;18.00;41.42;99654.56;5110361;27;20035;-32
2022/03/30 08:40:44;;;;;;;17.80;9.55;;;;;;;18.42;40.20;99633.50;5129004;27;20030;-33
2022/03/30 08:43:10;;;;;;;16.60;9.18;;;;;;;18.14;39.08;99624.25;5128889;27;20091;-28
2022/03/30 08:45:35;;;;;;;14.88;9.48;;;;;;;18.68;39.17;99645.72;5110427;27;20031;-33
2022/03/30 08:48:01;;;;;;;15.00;9.50;;;;;;;18.54;38.36;99633.16;5129063;27;20037;-29
2022/03/30 08:50:27;;;;;;;19.38;10.02;;;;;;;18.33;39.68;99617.09;5110354;27;20019;-29
2022/03/30 08:52:55;;;;;;;13.75;8.70;;;;;;;18.52;38.63;99621.81;5110173;27;20050;-32
2022/03/30 08:55:21;;;;;;;;;;;;;;;18.96;38.01;99631.72;5110575;27;20035;-29
2022/03/30 08:57:47;;;;;;;15.80;9.38;;;;;;;19.44;36.96;99620.94;5129080;27;19973;-28
2022/03/30 09:00:14;;;;;;;15.25;9.20;;;;;;;19.71;37.36;99641.22;5128681;27;20023;-33
2022/03/30 09:02:42;;;;;;;26.20;10.40;;;;;;;20.10;37.36;99623.91;5128838;27;20038;-30
2022/03/30 09:05:25;;;;;;;14.27;8.95;;;;;;;19.94;36.49;99629.53;5109993;28;20756;-28
2022/03/30 09:07:56;;;;;;;16.65;8.98;;;;;;;19.63;35.96;99618.28;5128621;27;20079;-30
2022/03/30 09:10:28;;;;;;;14.30;9.60;;;;;;;19.77;36.21;99623.81;5110160;27;20042;-33
2022/03/30 09:12:55;;;;;;;19.45;8.80;;;;;;;19.83;35.89;99623.44;5109830;27;20131;-29
2022/03/30 09:15:21;;;;;;;13.73;9.70;;;;;;;19.53;36.26;99627.31;5128314;27;20037;-28
2022/03/30 09:17:47;;;;;;;17.40;9.70;;;;;;;19.55;36.45;99606.19;5128412;27;20031;-31
2022/03/30 09:20:19;;;;;;;14.50;10.38;;;;;;;19.27;36.72;99606.00;5109847;28;20538;-30
2022/03/30 09:22:47;;;;;;;18.20;9.73;;;;;;;19.49;35.71;99610.06;5109887;28;20038;-31
2022/03/30 09:25:14;;;;;;;17.42;9.40;;;;;;;19.66;36.20;99607.69;5109991;28;20031;-30
2022/03/30 09:27:43;;;;;;;13.05;9.45;;;;;;;20.09;37.60;99585.22;5109681;28;20071;-32
2022/03/30 09:30:12;;;;;;;15.68;10.25;;;;;;;20.54;36.29;99592.91;5128300;28;20024;-33
2022/03/30 09:32:41;;;;;;;18.38;9.63;;;;;;;20.43;35.31;99574.13;5127877;28;20071;-29
2022/03/30 09:35:19;;;;;;;17.55;9.40;;;;;;;20.84;34.12;99568.00;5109222;28;20035;-34
2022/03/30 09:37:57;;;;;;;15.18;9.43;;;;;;;20.77;34.67;99573.00;5109864;28;20027;-30
2022/03/30 09:40:42;;;;;;;14.80;8.43;;;;;;;20.64;34.21;99554.84;5109820;28;20555;-33
2022/03/30 09:43:28;;;;;;;18.83;8.77;;;;;;;20.50;33.91;99559.38;5127991;28;20062;-30
2022/03/30 09:46:08;;;;;;;16.05;8.65;;;;;;;20.75;33.68;99547.31;5109879;28;20038;-29
2022/03/30 09:48:38;;;;;;;18.20;8.82;;;;;;;21.19;32.48;99537.81;5109663;28;20568;-29
2022/03/30 09:51:06;;;;;;;15.63;10.73;;;;;;;21.10;33.13;99543.09;5109280;28;20092;-28
2022/03/30 09:53:33;;;;;;;25.00;11.10;;;;;;;21.62;33.02;99526.63;5128140;28;20059;-32
2022/03/30 09:56:06;;;;;;;17.98;9.98;;;;;;;22.29;30.52;99536.72;5109309;28;20023;-30
2022/03/30 09:58:34;;;;;;;18.20;10.10;;;;;;;22.21;30.45;99518.41;5128158;28;20054;-29
2022/03/30 10:01:08;;;;;;;16.25;9.48;;;;;;;22.26;31.85;99515.63;5109107;28;20062;-32
2022/03/30 10:03:53;;;;;;;12.73;9.00;;;;;;;22.84;29.83;99524.69;5109567;28;20088;-30
2022/03/30 10:06:45;;;;;;;15.35;8.57;;;;;;;22.75;31.66;99507.56;5127643;28;20042;-30
2022/03/30 10:09:11;;;;;;;18.23;9.25;;;;;;;22.50;32.37;99503.63;5123928;27;20118;-37
2022/03/30 10:11:37;;;;;;;15.57;8.88;;;;;;;22.44;30.14;99500.22;5131774;27;20033;-29
2022/03/30 10:14:05;;;;;;;17.17;9.43;;;;;;;22.37;31.06;99494.44;5131873;27;20023;-30
2022/03/30 10:16:30;;;;;;;15.63;8.45;;;;;;;23.08;29.61;99499.06;5112973;27;20053;-34
2022/03/30 10:18:56;;;;;;;16.88;8.38;;;;;;;23.33;28.76;99481.97;5131637;27;20035;-32
2022/03/30 10:21:30;;;;;;;16.40;8.90;;;;;;;23.47;29.41;99488.06;5131661;27;20031;-29
2022/03/30 10:24:17;;;;;;;13.00;8.70;;;;;;;23.87;27.96;99495.34;5131340;27;20027;-33
2022/03/30 10:26:49;;;;;;;;;;;;;;;23.99;28.63;99487.31;5132076;27;20031;-29
2022/03/30 10:29:17;;;;;;;14.68;8.93;;;;;;;24.10;29.21;99481.53;5112378;27;19961;-29
2022/03/30 10:32:09;;;;;;;17.52;9.07;;;;;;;23.74;29.25;99477.19;5131734;27;20049;-29
2022/03/30 10:34:51;;;;;;;17.77;9.18;;;;;;;23.48;29.04;99458.97;5109285;28;20112;-31
2022/03/30 10:37:27;;;;;;;11.23;8.23;;;;;;;23.67;27.72;99456.72;5109426;28;20420;-30
2022/03/30 10:40:05;;;;;;;13.55;9.30;;;;;;;24.00;26.04;99478.00;5109215;28;20032;-29
2022/03/30 10:42:45;;;;;;;;;;;;;;;23.83;26.15;99472.59;5109831;28;20023;-30
2022/03/30 10:45:39;;;;;;;16.30;9.50;;;;;;;24.04;26.74;99456.38;5108900;28;19923;-31
2022/03/30 10:48:12;;;;;;;18.17;9.88;;;;;;;24.11;27.16;99461.31;5110243;28;20036;-32
2022/03/30 10:50:45;;;;;;;16.85;8.68;;;;;;;24.32;25.97;99456.00;5110333;27;20038;-31
2022/03/30 10:53:29;;;;;;;15.52;8.95;;;;;;;24.41;26.74;99454.81;5108518;28;20041;-35
2022/03/30 10:55:55;;;;;;;14.45;9.50;;;;;;;24.15;28.11;99444.03;5110587;28;20776;-31
2022/03/30 10:58:20;;;;;;;14.52;9.05;;;;;;;24.09;25.88;99444.50;5110145;28;20081;-31
2022/03/30 11:00:46;;;;;;;16.98;10.15;;;;;;;24.21;26.45;99440.00;5110456;28;20392;-29
2022/03/30 11:03:20;;;;;;;16.20;9.05;;;;;;;24.33;25.58;99452.91;5109941;28;20079;-32
2022/03/30 11:06:11;;;;;;;18.80;9.02;;;;;;;24.93;26.26;99442.09;5110556;28;20149;-30
2022/03/30 11:08:38;;;;;;;15.82;9.73;;;;;;;24.82;24.64;99431.56;5107622;27;20047;-33
2022/03/30 11:11:19;;;;;;;16.67;10.00;;;;;;;25.18;25.71;99424.75;5108729;28;20049;-30
2022/03/30 11:13:45;;;;;;;17.70;9.30;;;;;;;25.35;24.14;99429.31;5108848;28;20028;-29
2022/03/30 11:16:13;;;;;;;14.82;9.18;;;;;;;25.40;23.73;99411.97;5110202;28;20023;-29
2022/03/30 11:19:02;;;;;;;19.45;9.65;;;;;;;25.17;25.12;99404.09;5109926;28;20030;-30
2022/03/30 11:21:29;;;;;;;16.42;9.82;;;;;;;25.01;25.18;99389.44;5108680;28;20038;-32
2022/03/30 11:24:11;;;;;;;15.60;9.60;;;;;;;24.80;25.36;99394.84;5109645;28;20449;-31
2022/03/30 11:27:05;;;;;;;15.18;9.07;;;;;;;24.92;24.79;99391.41;5108211;28;20035;-29
2022/03/30 11:29:40;;;;;;;16.60;9.35;;;;;;;24.99;24.57;99387.03;5107833;28;20027;-29
2022/03/30 11:32:23;;;;;;;19.13;10.02;;;;;;;24.54;26.71;99360.38;5109667;28;20032;-31
2022/03/30 11:34:52;;;;;;;22.00;9.80;;;;;;;23.74;26.43;99347.34;5108396;28;20503;-29
2022/03/30 11:37:27;;;;;;;17.30;10.63;;;;;;;24.40;26.74;99355.13;5108159;28;20047;-33